sensor_id;sensor_type;location;lat;lon;timestamp;P1;durP1;ratioP1;P2;durP2;ratioP2
17832;SDS011;9041;49.718;21.798;2023-06-22T00:00:46;13.77;;;8.68;;
17832;SDS011;9041;49.718;21.798;2023-06-22T00:03:13;15.07;;;8.48;;
17832;SDS011;9041;49.718;21.798;2023-06-22T00:05:39;15.38;;;8.10;;
17832;SDS011;9041;49.718;21.798;2023-06-22T00:08:06;14.30;;;8.73;;
17832;SDS011;9041;49.718;21.798;2023-06-22T00:10:32;11.88;;;7.72;;
17832;SDS011;9041;49.718;21.798;2023-06-22T00:12:59;15.38;;;8.50;;
17832;SDS011;9041;49.718;21.798;2023-06-22T00:15:26;12.40;;;8.02;;
17832;SDS011;9041;49.718;21.798;2023-06-22T00:17:54;14.27;;;7.65;;
17832;SDS011;9041;49.718;21.798;2023-06-22T00:20:22;11.75;;;8.30;;
17832;SDS011;9041;49.718;21.798;2023-06-22T00:22:52;12.18;;;8.27;;
17832;SDS011;9041;49.718;21.798;2023-06-22T00:25:19;17.67;;;9.00;;
17832;SDS011;9041;49.718;21.798;2023-06-22T00:27:46;13.52;;;7.82;;
17832;SDS011;9041;49.718;21.798;2023-06-22T00:30:13;17.60;;;8.65;;
17832;SDS011;9041;49.718;21.798;2023-06-22T00:32:39;15.25;;;8.18;;
17832;SDS011;9041;49.718;21.798;2023-06-22T00:35:08;13.27;;;8.32;;
17832;SDS011;9041;49.718;21.798;2023-06-22T00:37:35;11.20;;;8.10;;
17832;SDS011;9041;49.718;21.798;2023-06-22T00:40:01;13.30;;;8.60;;
17832;SDS011;9041;49.718;21.798;2023-06-22T00:42:29;19.90;;;9.15;;
17832;SDS011;9041;49.718;21.798;2023-06-22T00:44:56;14.90;;;8.07;;
17832;SDS011;9041;49.718;21.798;2023-06-22T00:47:23;12.50;;;8.15;;
17832;SDS011;9041;49.718;21.798;2023-06-22T00:49:50;13.95;;;8.55;;
17832;SDS011;9041;49.718;21.798;2023-06-22T00:52:18;13.00;;;8.20;;
17832;SDS011;9041;49.718;21.798;2023-06-22T00:54:47;16.05;;;8.65;;
17832;SDS011;9041;49.718;21.798;2023-06-22T00:57:14;14.88;;;8.20;;
17832;SDS011;9041;49.718;21.798;2023-06-22T00:59:41;14.27;;;8.30;;
17832;SDS011;9041;49.718;21.798;2023-06-22T01:02:08;12.73;;;8.77;;
17832;SDS011;9041;49.718;21.798;2023-06-22T01:04:36;14.27;;;9.15;;
17832;SDS011;9041;49.718;21.798;2023-06-22T01:07:06;15.27;;;8.32;;
17832;SDS011;9041;49.718;21.798;2023-06-22T01:09:54;16.45;;;9.43;;
17832;SDS011;9041;49.718;21.798;2023-06-22T01:12:23;15.98;;;8.85;;
17832;SDS011;9041;49.718;21.798;2023-06-22T01:14:53;16.40;;;9.65;;
17832;SDS011;9041;49.718;21.798;2023-06-22T01:17:22;18.48;;;10.18;;
17832;SDS011;9041;49.718;21.798;2023-06-22T01:19:49;19.13;;;9.40;;
17832;SDS011;9041;49.718;21.798;2023-06-22T01:22:20;16.85;;;9.18;;
17832;SDS011;9041;49.718;21.798;2023-06-22T01:24:53;14.75;;;9.60;;
17832;SDS011;9041;49.718;21.798;2023-06-22T01:27:28;17.83;;;9.88;;
17832;SDS011;9041;49.718;21.798;2023-06-22T01:30:01;16.55;;;9.13;;
17832;SDS011;9041;49.718;21.798;2023-06-22T01:32:48;18.45;;;10.00;;
17832;SDS011;9041;49.718;21.798;2023-06-22T01:35:16;16.23;;;9.63;;
17832;SDS011;9041;49.718;21.798;2023-06-22T01:37:43;15.07;;;9.73;;
17832;SDS011;9041;49.718;21.798;2023-06-22T01:40:10;16.23;;;9.02;;
17832;SDS011;9041;49.718;21.798;2023-06-22T01:42:37;20.85;;;9.55;;
17832;SDS011;9041;49.718;21.798;2023-06-22T01:45:06;17.08;;;8.52;;
17832;SDS011;9041;49.718;21.798;2023-06-22T01:47:33;17.00;;;9.57;;
17832;SDS011;9041;49.718;21.798;2023-06-22T01:50:00;12.77;;;8.77;;
17832;SDS011;9041;49.718;21.798;2023-06-22T01:52:27;18.55;;;9.25;;
17832;SDS011;9041;49.718;21.798;2023-06-22T01:54:54;14.60;;;8.57;;
17832;SDS011;9041;49.718;21.798;2023-06-22T01:57:22;18.20;;;9.18;;
17832;SDS011;9041;49.718;21.798;2023-06-22T01:59:52;16.25;;;9.02;;
17832;SDS011;9041;49.718;21.798;2023-06-22T02:02:28;15.60;;;9.07;;
17832;SDS011;9041;49.718;21.798;2023-06-22T02:04:58;16.95;;;8.90;;
17832;SDS011;9041;49.718;21.798;2023-06-22T02:07:28;18.10;;;8.73;;
17832;SDS011;9041;49.718;21.798;2023-06-22T02:10:02;15.50;;;8.65;;
17832;SDS011;9041;49.718;21.798;2023-06-22T02:12:29;15.35;;;8.57;;
17832;SDS011;9041;49.718;21.798;2023-06-22T02:14:57;14.77;;;9.05;;
17832;SDS011;9041;49.718;21.798;2023-06-22T02:17:25;15.40;;;8.68;;
17832;SDS011;9041;49.718;21.798;2023-06-22T02:19:53;14.60;;;9.30;;
17832;SDS011;9041;49.718;21.798;2023-06-22T02:22:20;15.60;;;8.73;;
17832;SDS011;9041;49.718;21.798;2023-06-22T02:24:46;16.00;;;8.90;;
17832;SDS011;9041;49.718;21.798;2023-06-22T02:27:13;15.15;;;9.35;;
17832;SDS011;9041;49.718;21.798;2023-06-22T02:29:39;13.50;;;9.05;;
17832;SDS011;9041;49.718;21.798;2023-06-22T02:32:06;16.90;;;8.82;;
17832;SDS011;9041;49.718;21.798;2023-06-22T02:34:35;21.55;;;8.68;;
17832;SDS011;9041;49.718;21.798;2023-06-22T02:37:01;13.23;;;8.50;;
17832;SDS011;9041;49.718;21.798;2023-06-22T02:39:28;15.10;;;9.05;;
17832;SDS011;9041;49.718;21.798;2023-06-22T02:41:55;14.23;;;8.95;;
17832;SDS011;9041;49.718;21.798;2023-06-22T02:44:21;19.02;;;8.50;;
17832;SDS011;9041;49.718;21.798;2023-06-22T02:46:48;16.65;;;9.05;;
17832;SDS011;9041;49.718;21.798;2023-06-22T02:49:15;14.00;;;8.65;;
17832;SDS011;9041;49.718;21.798;2023-06-22T02:51:44;15.20;;;8.98;;
17832;SDS011;9041;49.718;21.798;2023-06-22T02:54:11;15.18;;;8.68;;
17832;SDS011;9041;49.718;21.798;2023-06-22T02:56:38;16.33;;;8.65;;
17832;SDS011;9041;49.718;21.798;2023-06-22T02:59:05;15.68;;;9.30;;
17832;SDS011;9041;49.718;21.798;2023-06-22T03:01:32;20.20;;;10.23;;
17832;SDS011;9041;49.718;21.798;2023-06-22T03:04:03;18.80;;;9.73;;
17832;SDS011;9041;49.718;21.798;2023-06-22T03:06:30;18.50;;;10.02;;
17832;SDS011;9041;49.718;21.798;2023-06-22T03:08:59;16.05;;;9.38;;
17832;SDS011;9041;49.718;21.798;2023-06-22T03:11:27;15.18;;;9.75;;
17832;SDS011;9041;49.718;21.798;2023-06-22T03:13:53;21.15;;;10.32;;
17832;SDS011;9041;49.718;21.798;2023-06-22T03:16:20;15.70;;;9.13;;
17832;SDS011;9041;49.718;21.798;2023-06-22T03:18:46;17.13;;;9.20;;
17832;SDS011;9041;49.718;21.798;2023-06-22T03:21:13;18.80;;;10.27;;
17832;SDS011;9041;49.718;21.798;2023-06-22T03:23:40;16.10;;;9.93;;
17832;SDS011;9041;49.718;21.798;2023-06-22T03:26:09;18.23;;;9.88;;
17832;SDS011;9041;49.718;21.798;2023-06-22T03:28:36;18.10;;;9.75;;
17832;SDS011;9041;49.718;21.798;2023-06-22T03:31:02;16.55;;;10.25;;
17832;SDS011;9041;49.718;21.798;2023-06-22T03:33:31;15.48;;;10.63;;
17832;SDS011;9041;49.718;21.798;2023-06-22T03:35:58;18.48;;;10.45;;
17832;SDS011;9041;49.718;21.798;2023-06-22T03:38:24;19.90;;;10.63;;
17832;SDS011;9041;49.718;21.798;2023-06-22T03:40:51;18.55;;;11.55;;
17832;SDS011;9041;49.718;21.798;2023-06-22T03:43:19;20.25;;;11.15;;
17832;SDS011;9041;49.718;21.798;2023-06-22T03:45:46;20.75;;;11.45;;
17832;SDS011;9041;49.718;21.798;2023-06-22T03:48:13;17.42;;;11.38;;
17832;SDS011;9041;49.718;21.798;2023-06-22T03:50:40;18.08;;;11.55;;
17832;SDS011;9041;49.718;21.798;2023-06-22T03:53:06;18.42;;;11.02;;
17832;SDS011;9041;49.718;21.798;2023-06-22T03:55:33;20.52;;;12.20;;
17832;SDS011;9041;49.718;21.798;2023-06-22T03:58:00;19.92;;;11.93;;
17832;SDS011;9041;49.718;21.798;2023-06-22T04:00:32;22.75;;;12.15;;
17832;SDS011;9041;49.718;21.798;2023-06-22T04:02:58;22.58;;;12.27;;
17832;SDS011;9041;49.718;21.798;2023-06-22T04:05:25;22.75;;;12.15;;
17832;SDS011;9041;49.718;21.798;2023-06-22T04:07:51;20.10;;;12.90;;
17832;SDS011;9041;49.718;21.798;2023-06-22T04:10:18;20.92;;;11.95;;
17832;SDS011;9041;49.718;21.798;2023-06-22T04:12:45;24.67;;;12.25;;
17832;SDS011;9041;49.718;21.798;2023-06-22T04:15:12;17.20;;;11.13;;
17832;SDS011;9041;49.718;21.798;2023-06-22T04:17:40;26.63;;;11.95;;
17832;SDS011;9041;49.718;21.798;2023-06-22T04:20:07;18.85;;;12.07;;
17832;SDS011;9041;49.718;21.798;2023-06-22T04:22:35;22.00;;;12.43;;
17832;SDS011;9041;49.718;21.798;2023-06-22T04:25:01;22.92;;;13.00;;
17832;SDS011;9041;49.718;21.798;2023-06-22T04:27:28;20.88;;;12.45;;
17832;SDS011;9041;49.718;21.798;2023-06-22T04:29:54;23.45;;;12.48;;
17832;SDS011;9041;49.718;21.798;2023-06-22T04:32:21;19.58;;;11.68;;
17832;SDS011;9041;49.718;21.798;2023-06-22T04:34:49;24.33;;;11.55;;
17832;SDS011;9041;49.718;21.798;2023-06-22T04:37:17;18.27;;;11.07;;
17832;SDS011;9041;49.718;21.798;2023-06-22T04:39:44;19.98;;;12.02;;
17832;SDS011;9041;49.718;21.798;2023-06-22T04:42:11;19.15;;;11.75;;
17832;SDS011;9041;49.718;21.798;2023-06-22T04:44:38;22.88;;;11.13;;
17832;SDS011;9041;49.718;21.798;2023-06-22T04:47:06;28.00;;;12.10;;
17832;SDS011;9041;49.718;21.798;2023-06-22T04:49:34;19.33;;;11.15;;
17832;SDS011;9041;49.718;21.798;2023-06-22T04:52:05;30.20;;;12.07;;
17832;SDS011;9041;49.718;21.798;2023-06-22T04:54:32;24.70;;;12.48;;
17832;SDS011;9041;49.718;21.798;2023-06-22T04:56:59;20.65;;;12.25;;
17832;SDS011;9041;49.718;21.798;2023-06-22T04:59:26;34.85;;;11.40;;
17832;SDS011;9041;49.718;21.798;2023-06-22T05:05:30;23.17;;;10.82;;
17832;SDS011;9041;49.718;21.798;2023-06-22T05:08:00;19.52;;;11.60;;
17832;SDS011;9041;49.718;21.798;2023-06-22T05:10:27;20.80;;;11.43;;
17832;SDS011;9041;49.718;21.798;2023-06-22T05:12:54;21.10;;;11.73;;
17832;SDS011;9041;49.718;21.798;2023-06-22T05:15:21;19.10;;;11.40;;
17832;SDS011;9041;49.718;21.798;2023-06-22T05:17:51;17.95;;;11.13;;
17832;SDS011;9041;49.718;21.798;2023-06-22T05:20:18;23.30;;;11.40;;
17832;SDS011;9041;49.718;21.798;2023-06-22T05:22:45;52.42;;;11.57;;
17832;SDS011;9041;49.718;21.798;2023-06-22T05:25:13;40.40;;;11.82;;
17832;SDS011;9041;49.718;21.798;2023-06-22T05:27:39;27.88;;;11.45;;
17832;SDS011;9041;49.718;21.798;2023-06-22T05:30:07;26.70;;;11.98;;
17832;SDS011;9041;49.718;21.798;2023-06-22T05:32:34;34.92;;;12.82;;
17832;SDS011;9041;49.718;21.798;2023-06-22T05:35:01;37.35;;;10.90;;
17832;SDS011;9041;49.718;21.798;2023-06-22T05:37:28;31.67;;;11.15;;
17832;SDS011;9041;49.718;21.798;2023-06-22T05:39:55;27.27;;;11.35;;
17832;SDS011;9041;49.718;21.798;2023-06-22T05:42:23;26.77;;;12.20;;
17832;SDS011;9041;49.718;21.798;2023-06-22T05:44:51;25.02;;;11.23;;
17832;SDS011;9041;49.718;21.798;2023-06-22T05:47:18;27.92;;;10.63;;
17832;SDS011;9041;49.718;21.798;2023-06-22T05:49:44;30.58;;;11.77;;
17832;SDS011;9041;49.718;21.798;2023-06-22T05:52:11;28.98;;;12.05;;
17832;SDS011;9041;49.718;21.798;2023-06-22T05:54:38;23.88;;;11.50;;
17832;SDS011;9041;49.718;21.798;2023-06-22T05:57:08;20.98;;;12.48;;
17832;SDS011;9041;49.718;21.798;2023-06-22T05:59:36;25.63;;;12.88;;
17832;SDS011;9041;49.718;21.798;2023-06-22T06:02:03;23.30;;;12.30;;
17832;SDS011;9041;49.718;21.798;2023-06-22T06:04:30;21.92;;;12.63;;
17832;SDS011;9041;49.718;21.798;2023-06-22T06:06:57;22.45;;;12.55;;
17832;SDS011;9041;49.718;21.798;2023-06-22T06:09:23;27.35;;;12.43;;
17832;SDS011;9041;49.718;21.798;2023-06-22T06:11:50;29.83;;;12.25;;
17832;SDS011;9041;49.718;21.798;2023-06-22T06:14:16;19.52;;;11.55;;
17832;SDS011;9041;49.718;21.798;2023-06-22T06:16:44;24.20;;;13.15;;
17832;SDS011;9041;49.718;21.798;2023-06-22T06:19:11;26.77;;;12.43;;
17832;SDS011;9041;49.718;21.798;2023-06-22T06:21:37;32.15;;;12.75;;
17832;SDS011;9041;49.718;21.798;2023-06-22T06:24:04;42.72;;;12.98;;
17832;SDS011;9041;49.718;21.798;2023-06-22T06:26:31;17.38;;;10.98;;
17832;SDS011;9041;49.718;21.798;2023-06-22T06:29:01;23.70;;;11.25;;
17832;SDS011;9041;49.718;21.798;2023-06-22T06:31:28;37.78;;;12.77;;
17832;SDS011;9041;49.718;21.798;2023-06-22T06:33:56;35.92;;;12.15;;
17832;SDS011;9041;49.718;21.798;2023-06-22T06:36:23;21.13;;;11.68;;
17832;SDS011;9041;49.718;21.798;2023-06-22T06:38:50;31.73;;;11.80;;
17832;SDS011;9041;49.718;21.798;2023-06-22T06:41:16;24.60;;;11.88;;
17832;SDS011;9041;49.718;21.798;2023-06-22T06:43:43;17.95;;;11.20;;
17832;SDS011;9041;49.718;21.798;2023-06-22T06:46:09;30.05;;;11.27;;
17832;SDS011;9041;49.718;21.798;2023-06-22T06:48:36;27.83;;;11.98;;
17832;SDS011;9041;49.718;21.798;2023-06-22T06:51:04;21.55;;;11.68;;
17832;SDS011;9041;49.718;21.798;2023-06-22T06:53:34;21.67;;;12.40;;
17832;SDS011;9041;49.718;21.798;2023-06-22T06:56:01;32.72;;;12.30;;
17832;SDS011;9041;49.718;21.798;2023-06-22T06:58:28;35.83;;;11.68;;
17832;SDS011;9041;49.718;21.798;2023-06-22T07:00:55;32.67;;;11.57;;
17832;SDS011;9041;49.718;21.798;2023-06-22T07:03:21;27.95;;;11.32;;
17832;SDS011;9041;49.718;21.798;2023-06-22T07:05:48;28.52;;;11.73;;
17832;SDS011;9041;49.718;21.798;2023-06-22T07:08:16;35.80;;;12.15;;
17832;SDS011;9041;49.718;21.798;2023-06-22T07:10:43;26.55;;;11.77;;
17832;SDS011;9041;49.718;21.798;2023-06-22T07:13:10;26.33;;;12.18;;
17832;SDS011;9041;49.718;21.798;2023-06-22T07:15:37;25.45;;;11.75;;
17832;SDS011;9041;49.718;21.798;2023-06-22T07:18:04;21.63;;;11.38;;
17832;SDS011;9041;49.718;21.798;2023-06-22T07:20:31;18.85;;;11.40;;
17832;SDS011;9041;49.718;21.798;2023-06-22T07:22:57;21.40;;;11.20;;
17832;SDS011;9041;49.718;21.798;2023-06-22T07:25:25;24.92;;;11.60;;
17832;SDS011;9041;49.718;21.798;2023-06-22T07:27:59;18.10;;;10.90;;
17832;SDS011;9041;49.718;21.798;2023-06-22T07:30:27;22.05;;;10.88;;
17832;SDS011;9041;49.718;21.798;2023-06-22T07:32:54;19.23;;;10.90;;
17832;SDS011;9041;49.718;21.798;2023-06-22T07:35:20;22.35;;;11.30;;
17832;SDS011;9041;49.718;21.798;2023-06-22T07:37:47;19.70;;;11.20;;
17832;SDS011;9041;49.718;21.798;2023-06-22T07:40:14;23.40;;;11.20;;
17832;SDS011;9041;49.718;21.798;2023-06-22T07:42:42;17.65;;;10.68;;
17832;SDS011;9041;49.718;21.798;2023-06-22T07:45:09;15.57;;;9.60;;
17832;SDS011;9041;49.718;21.798;2023-06-22T07:47:37;20.10;;;10.90;;
17832;SDS011;9041;49.718;21.798;2023-06-22T07:50:04;15.43;;;10.32;;
17832;SDS011;9041;49.718;21.798;2023-06-22T07:52:31;18.40;;;11.20;;
17832;SDS011;9041;49.718;21.798;2023-06-22T07:54:58;15.93;;;10.32;;
17832;SDS011;9041;49.718;21.798;2023-06-22T07:57:24;16.48;;;10.20;;
17832;SDS011;9041;49.718;21.798;2023-06-22T07:59:58;15.88;;;10.20;;
17832;SDS011;9041;49.718;21.798;2023-06-22T08:02:25;14.75;;;9.85;;
17832;SDS011;9041;49.718;21.798;2023-06-22T08:04:52;20.52;;;10.70;;
17832;SDS011;9041;49.718;21.798;2023-06-22T08:07:18;18.38;;;10.88;;
17832;SDS011;9041;49.718;21.798;2023-06-22T08:09:46;16.42;;;9.77;;
17832;SDS011;9041;49.718;21.798;2023-06-22T08:12:14;17.65;;;10.27;;
17832;SDS011;9041;49.718;21.798;2023-06-22T08:14:41;17.00;;;10.13;;
17832;SDS011;9041;49.718;21.798;2023-06-22T08:17:10;14.65;;;9.80;;
17832;SDS011;9041;49.718;21.798;2023-06-22T08:19:37;19.77;;;10.57;;
17832;SDS011;9041;49.718;21.798;2023-06-22T08:22:03;18.38;;;10.30;;
17832;SDS011;9041;49.718;21.798;2023-06-22T08:24:30;14.93;;;9.93;;
17832;SDS011;9041;49.718;21.798;2023-06-22T08:26:57;16.58;;;10.27;;
17832;SDS011;9041;49.718;21.798;2023-06-22T08:29:23;18.08;;;10.85;;
17832;SDS011;9041;49.718;21.798;2023-06-22T08:31:50;16.63;;;10.68;;
17832;SDS011;9041;49.718;21.798;2023-06-22T08:34:18;14.73;;;10.18;;
17832;SDS011;9041;49.718;21.798;2023-06-22T08:36:46;13.70;;;10.43;;
17832;SDS011;9041;49.718;21.798;2023-06-22T08:39:17;14.75;;;10.40;;
17832;SDS011;9041;49.718;21.798;2023-06-22T08:41:44;14.68;;;10.52;;
17832;SDS011;9041;49.718;21.798;2023-06-22T08:44:11;18.65;;;11.63;;
17832;SDS011;9041;49.718;21.798;2023-06-22T08:46:38;16.13;;;10.50;;
17832;SDS011;9041;49.718;21.798;2023-06-22T08:49:05;13.32;;;10.63;;
17832;SDS011;9041;49.718;21.798;2023-06-22T08:51:33;13.68;;;10.52;;
17832;SDS011;9041;49.718;21.798;2023-06-22T08:54:00;14.77;;;10.80;;
17832;SDS011;9041;49.718;21.798;2023-06-22T08:56:27;16.92;;;11.00;;
17832;SDS011;9041;49.718;21.798;2023-06-22T08:58:53;15.65;;;10.68;;
17832;SDS011;9041;49.718;21.798;2023-06-22T09:01:20;16.30;;;10.73;;
17832;SDS011;9041;49.718;21.798;2023-06-22T09:03:47;15.48;;;10.93;;
17832;SDS011;9041;49.718;21.798;2023-06-22T09:06:19;16.15;;;10.77;;
17832;SDS011;9041;49.718;21.798;2023-06-22T09:08:47;16.65;;;10.68;;
17832;SDS011;9041;49.718;21.798;2023-06-22T09:11:14;16.60;;;11.15;;
17832;SDS011;9041;49.718;21.798;2023-06-22T09:13:41;17.02;;;11.30;;
17832;SDS011;9041;49.718;21.798;2023-06-22T09:16:07;19.98;;;11.70;;
17832;SDS011;9041;49.718;21.798;2023-06-22T09:18:34;14.45;;;11.10;;
17832;SDS011;9041;49.718;21.798;2023-06-22T09:21:01;15.88;;;11.00;;
17832;SDS011;9041;49.718;21.798;2023-06-22T09:23:28;17.23;;;10.95;;
17832;SDS011;9041;49.718;21.798;2023-06-22T09:25:56;18.80;;;11.15;;
17832;SDS011;9041;49.718;21.798;2023-06-22T09:28:23;19.02;;;11.20;;
17832;SDS011;9041;49.718;21.798;2023-06-22T09:30:50;28.55;;;12.70;;
17832;SDS011;9041;49.718;21.798;2023-06-22T09:33:16;14.48;;;10.95;;
17832;SDS011;9041;49.718;21.798;2023-06-22T09:35:44;54.13;;;15.15;;
17832;SDS011;9041;49.718;21.798;2023-06-22T09:38:11;23.45;;;11.50;;
17832;SDS011;9041;49.718;21.798;2023-06-22T09:40:38;14.30;;;10.10;;
17832;SDS011;9041;49.718;21.798;2023-06-22T09:43:06;12.10;;;9.75;;
17832;SDS011;9041;49.718;21.798;2023-06-22T09:45:32;14.98;;;10.65;;
17832;SDS011;9041;49.718;21.798;2023-06-22T09:47:59;16.02;;;10.25;;
17832;SDS011;9041;49.718;21.798;2023-06-22T09:50:26;15.15;;;10.18;;
17832;SDS011;9041;49.718;21.798;2023-06-22T09:52:52;12.30;;;9.57;;
17832;SDS011;9041;49.718;21.798;2023-06-22T09:55:20;14.70;;;10.30;;
17832;SDS011;9041;49.718;21.798;2023-06-22T09:57:46;12.30;;;9.85;;
17832;SDS011;9041;49.718;21.798;2023-06-22T10:00:16;14.10;;;10.15;;
17832;SDS011;9041;49.718;21.798;2023-06-22T10:02:44;16.35;;;10.00;;
17832;SDS011;9041;49.718;21.798;2023-06-22T10:05:11;12.82;;;9.63;;
17832;SDS011;9041;49.718;21.798;2023-06-22T10:07:38;13.82;;;9.60;;
17832;SDS011;9041;49.718;21.798;2023-06-22T10:10:07;15.35;;;10.88;;
17832;SDS011;9041;49.718;21.798;2023-06-22T10:12:34;13.27;;;10.05;;
17832;SDS011;9041;49.718;21.798;2023-06-22T10:15:01;13.82;;;10.65;;
17832;SDS011;9041;49.718;21.798;2023-06-22T10:17:29;15.07;;;9.68;;
17832;SDS011;9041;49.718;21.798;2023-06-22T10:19:55;13.73;;;9.30;;
17832;SDS011;9041;49.718;21.798;2023-06-22T10:22:22;11.93;;;9.65;;
17832;SDS011;9041;49.718;21.798;2023-06-22T10:24:49;12.45;;;9.63;;
17832;SDS011;9041;49.718;21.798;2023-06-22T10:27:15;22.67;;;10.05;;
17832;SDS011;9041;49.718;21.798;2023-06-22T10:29:42;12.38;;;9.93;;
17832;SDS011;9041;49.718;21.798;2023-06-22T10:32:09;13.43;;;10.00;;
17832;SDS011;9041;49.718;21.798;2023-06-22T10:34:37;13.30;;;9.90;;
17832;SDS011;9041;49.718;21.798;2023-06-22T10:37:04;13.68;;;9.88;;
17832;SDS011;9041;49.718;21.798;2023-06-22T10:39:31;11.70;;;9.07;;
17832;SDS011;9041;49.718;21.798;2023-06-22T10:41:57;14.98;;;9.77;;
17832;SDS011;9041;49.718;21.798;2023-06-22T10:44:24;12.80;;;9.43;;
17832;SDS011;9041;49.718;21.798;2023-06-22T10:46:50;12.43;;;9.32;;
17832;SDS011;9041;49.718;21.798;2023-06-22T10:49:17;12.25;;;8.90;;
17832;SDS011;9041;49.718;21.798;2023-06-22T10:51:45;15.70;;;10.68;;
17832;SDS011;9041;49.718;21.798;2023-06-22T10:54:11;16.20;;;9.73;;
17832;SDS011;9041;49.718;21.798;2023-06-22T10:56:39;15.65;;;9.43;;
17832;SDS011;9041;49.718;21.798;2023-06-22T10:59:06;18.73;;;10.63;;
17832;SDS011;9041;49.718;21.798;2023-06-22T11:01:32;15.18;;;9.50;;
17832;SDS011;9041;49.718;21.798;2023-06-22T11:03:59;13.82;;;10.07;;
17832;SDS011;9041;49.718;21.798;2023-06-22T11:06:26;13.75;;;9.40;;
17832;SDS011;9041;49.718;21.798;2023-06-22T11:08:54;14.55;;;9.52;;
17832;SDS011;9041;49.718;21.798;2023-06-22T11:11:20;11.00;;;9.57;;
17832;SDS011;9041;49.718;21.798;2023-06-22T11:13:47;12.18;;;9.88;;
17832;SDS011;9041;49.718;21.798;2023-06-22T11:16:14;12.05;;;9.02;;
17832;SDS011;9041;49.718;21.798;2023-06-22T11:18:41;13.25;;;9.85;;
17832;SDS011;9041;49.718;21.798;2023-06-22T11:21:07;11.63;;;9.20;;
17832;SDS011;9041;49.718;21.798;2023-06-22T11:23:34;13.48;;;9.90;;
17832;SDS011;9041;49.718;21.798;2023-06-22T11:26:02;12.40;;;10.07;;
17832;SDS011;9041;49.718;21.798;2023-06-22T11:28:29;12.18;;;9.10;;
17832;SDS011;9041;49.718;21.798;2023-06-22T11:30:55;14.20;;;10.20;;
17832;SDS011;9041;49.718;21.798;2023-06-22T11:33:22;14.63;;;10.20;;
17832;SDS011;9041;49.718;21.798;2023-06-22T11:35:49;14.18;;;10.45;;
17832;SDS011;9041;49.718;21.798;2023-06-22T11:38:15;11.57;;;9.48;;
17832;SDS011;9041;49.718;21.798;2023-06-22T11:40:42;11.98;;;10.10;;
17832;SDS011;9041;49.718;21.798;2023-06-22T11:43:10;11.95;;;9.45;;
17832;SDS011;9041;49.718;21.798;2023-06-22T11:45:37;13.27;;;9.48;;
17832;SDS011;9041;49.718;21.798;2023-06-22T11:48:04;13.20;;;10.75;;
17832;SDS011;9041;49.718;21.798;2023-06-22T11:50:31;12.60;;;10.20;;
17832;SDS011;9041;49.718;21.798;2023-06-22T11:53:00;15.80;;;10.02;;
17832;SDS011;9041;49.718;21.798;2023-06-22T11:55:29;12.25;;;9.80;;
17832;SDS011;9041;49.718;21.798;2023-06-22T11:57:56;12.80;;;9.82;;
17832;SDS011;9041;49.718;21.798;2023-06-22T12:00:26;14.35;;;10.48;;
17832;SDS011;9041;49.718;21.798;2023-06-22T12:02:53;11.15;;;9.82;;
17832;SDS011;9041;49.718;21.798;2023-06-22T12:05:20;14.02;;;9.88;;
17832;SDS011;9041;49.718;21.798;2023-06-22T12:07:47;14.88;;;10.32;;
17832;SDS011;9041;49.718;21.798;2023-06-22T12:10:14;15.15;;;9.63;;
17832;SDS011;9041;49.718;21.798;2023-06-22T12:12:41;14.93;;;10.63;;
17832;SDS011;9041;49.718;21.798;2023-06-22T12:15:08;12.80;;;9.88;;
17832;SDS011;9041;49.718;21.798;2023-06-22T12:17:37;13.45;;;10.60;;
17832;SDS011;9041;49.718;21.798;2023-06-22T12:20:05;12.30;;;9.77;;
17832;SDS011;9041;49.718;21.798;2023-06-22T12:22:36;14.57;;;9.98;;
17832;SDS011;9041;49.718;21.798;2023-06-22T12:25:03;14.23;;;9.75;;
17832;SDS011;9041;49.718;21.798;2023-06-22T12:27:30;12.88;;;9.45;;
17832;SDS011;9041;49.718;21.798;2023-06-22T12:29:57;12.07;;;9.38;;
17832;SDS011;9041;49.718;21.798;2023-06-22T12:32:24;13.20;;;9.70;;
17832;SDS011;9041;49.718;21.798;2023-06-22T12:34:52;13.02;;;9.98;;
17832;SDS011;9041;49.718;21.798;2023-06-22T12:37:18;13.85;;;10.48;;
17832;SDS011;9041;49.718;21.798;2023-06-22T12:39:45;16.17;;;10.05;;
17832;SDS011;9041;49.718;21.798;2023-06-22T12:42:11;12.77;;;9.73;;
17832;SDS011;9041;49.718;21.798;2023-06-22T12:44:38;11.77;;;9.63;;
17832;SDS011;9041;49.718;21.798;2023-06-22T12:47:06;13.63;;;9.48;;
17832;SDS011;9041;49.718;21.798;2023-06-22T12:49:33;12.82;;;9.73;;
17832;SDS011;9041;49.718;21.798;2023-06-22T12:52:01;12.27;;;9.25;;
17832;SDS011;9041;49.718;21.798;2023-06-22T12:54:28;15.63;;;10.18;;
17832;SDS011;9041;49.718;21.798;2023-06-22T12:56:54;12.98;;;10.13;;
17832;SDS011;9041;49.718;21.798;2023-06-22T12:59:21;14.23;;;9.73;;
17832;SDS011;9041;49.718;21.798;2023-06-22T13:01:47;14.07;;;9.95;;
17832;SDS011;9041;49.718;21.798;2023-06-22T13:04:14;13.90;;;9.50;;
17832;SDS011;9041;49.718;21.798;2023-06-22T13:06:41;13.23;;;9.77;;
17832;SDS011;9041;49.718;21.798;2023-06-22T13:09:11;13.82;;;9.70;;
17832;SDS011;9041;49.718;21.798;2023-06-22T13:11:38;12.27;;;8.90;;
17832;SDS011;9041;49.718;21.798;2023-06-22T13:14:04;12.20;;;9.40;;
17832;SDS011;9041;49.718;21.798;2023-06-22T13:16:31;15.93;;;10.88;;
17832;SDS011;9041;49.718;21.798;2023-06-22T13:18:57;14.95;;;12.13;;
17832;SDS011;9041;49.718;21.798;2023-06-22T13:21:24;18.95;;;13.52;;
17832;SDS011;9041;49.718;21.798;2023-06-22T13:23:50;19.23;;;13.95;;
17832;SDS011;9041;49.718;21.798;2023-06-22T13:26:19;19.27;;;13.15;;
17832;SDS011;9041;49.718;21.798;2023-06-22T13:28:47;20.52;;;14.65;;
17832;SDS011;9041;49.718;21.798;2023-06-22T13:31:13;22.20;;;13.75;;
17832;SDS011;9041;49.718;21.798;2023-06-22T13:33:40;22.00;;;14.80;;
17832;SDS011;9041;49.718;21.798;2023-06-22T13:36:06;21.90;;;14.10;;
17832;SDS011;9041;49.718;21.798;2023-06-22T13:41:03;21.77;;;15.20;;
17832;SDS011;9041;49.718;21.798;2023-06-22T13:43:31;29.98;;;15.32;;
17832;SDS011;9041;49.718;21.798;2023-06-22T13:45:58;47.95;;;15.25;;
17832;SDS011;9041;49.718;21.798;2023-06-22T13:48:24;32.58;;;14.70;;
17832;SDS011;9041;49.718;21.798;2023-06-22T13:50:53;32.17;;;14.93;;
17832;SDS011;9041;49.718;21.798;2023-06-22T13:53:20;288.15;;;25.70;;
17832;SDS011;9041;49.718;21.798;2023-06-22T13:55:47;89.03;;;18.80;;
17832;SDS011;9041;49.718;21.798;2023-06-22T13:58:13;71.32;;;16.50;;
17832;SDS011;9041;49.718;21.798;2023-06-22T14:00:41;25.42;;;12.95;;
17832;SDS011;9041;49.718;21.798;2023-06-22T14:03:08;22.80;;;14.20;;
17832;SDS011;9041;49.718;21.798;2023-06-22T14:05:35;20.60;;;13.55;;
17832;SDS011;9041;49.718;21.798;2023-06-22T14:08:01;22.23;;;14.25;;
17832;SDS011;9041;49.718;21.798;2023-06-22T14:10:28;20.88;;;13.63;;
17832;SDS011;9041;49.718;21.798;2023-06-22T14:12:54;19.25;;;13.60;;
17832;SDS011;9041;49.718;21.798;2023-06-22T14:15:21;23.13;;;14.38;;
17832;SDS011;9041;49.718;21.798;2023-06-22T14:17:49;18.23;;;12.57;;
17832;SDS011;9041;49.718;21.798;2023-06-22T14:20:15;22.33;;;13.23;;
17832;SDS011;9041;49.718;21.798;2023-06-22T14:22:42;19.05;;;13.10;;
17832;SDS011;9041;49.718;21.798;2023-06-22T14:25:09;20.98;;;12.20;;
17832;SDS011;9041;49.718;21.798;2023-06-22T14:27:35;14.68;;;11.55;;
17832;SDS011;9041;49.718;21.798;2023-06-22T14:30:02;15.48;;;12.30;;
17832;SDS011;9041;49.718;21.798;2023-06-22T14:32:30;17.77;;;12.48;;